Time;durP1;ratioP1;P1;durP2;ratioP2;P2;SDS_P1;SDS_P2;PMS_P1;PMS_P2;Temp;Humidity;BMP_temperature;BMP_pressure;BME280_temperature;BME280_humidity;BME280_pressure;Samples;Min_cycle;Max_cycle;Signal;HPM_P1;HPM_P2
2022/02/15 00:00:22;;;;;;;152.02;92.22;;;;;;;3.16;67.85;95429.16;4952223;28;20511;-77
2022/02/15 00:02:48;;;;;;;133.95;84.00;;;;;;;3.16;67.66;95434.28;4953756;29;20039;-77
2022/02/15 00:05:13;;;;;;;126.75;73.75;;;;;;;3.23;67.71;95433.41;4937994;29;20117;-77
2022/02/15 00:07:39;;;;;;;128.40;73.63;;;;;;;3.15;67.27;95424.97;4954681;28;20127;-77
2022/02/15 00:10:05;;;;;;;124.45;77.88;;;;;;;3.10;67.11;95417.78;4951513;28;20082;-77
2022/02/15 00:12:31;;;;;;;140.57;83.65;;;;;;;3.10;67.54;95419.56;4950908;29;20028;-77
2022/02/15 00:14:56;;;;;;;134.10;75.20;;;;;;;3.09;67.57;95417.94;4953124;28;20035;-77
2022/02/15 00:17:21;;;;;;;142.52;85.10;;;;;;;3.09;67.29;95415.34;4952771;28;20032;-77
2022/02/15 00:19:47;;;;;;;136.02;77.43;;;;;;;3.05;67.62;95420.03;4951924;29;20035;-77
2022/02/15 00:22:13;;;;;;;149.35;84.15;;;;;;;3.02;67.62;95404.97;4951642;29;20570;-78
2022/02/15 00:24:39;;;;;;;134.25;77.75;;;;;;;3.05;68.63;95414.09;4951100;28;20055;-77
2022/02/15 00:27:04;;;;;;;160.52;91.18;;;;;;;3.04;67.28;95413.31;4953106;28;20074;-77
2022/02/15 00:29:30;;;;;;;141.00;79.32;;;;;;;3.08;68.00;95413.75;4951566;28;20042;-77
2022/02/15 00:31:55;;;;;;;60.60;34.42;;;;;;;3.13;71.03;95409.72;4951194;29;20038;-77
2022/02/15 00:34:21;;;;;;;152.90;81.88;;;;;;;3.20;67.38;95423.47;4951802;29;20046;-77
2022/02/15 00:36:46;;;;;;;170.18;91.07;;;;;;;3.10;67.28;95417.00;4949928;29;20031;-77
2022/02/15 00:39:11;;;;;;;167.23;90.93;;;;;;;3.12;67.08;95417.63;4950841;28;20058;-77
2022/02/15 00:41:37;;;;;;;176.48;92.68;;;;;;;3.08;66.98;95413.75;4957708;23;20542;-77
2022/02/15 00:44:02;;;;;;;162.82;94.05;;;;;;;3.08;66.36;95417.13;4952843;28;20494;-77
2022/02/15 00:46:28;;;;;;;184.13;98.10;;;;;;;2.99;66.47;95421.53;4952753;29;20023;-77
2022/02/15 00:48:53;;;;;;;180.27;95.18;;;;;;;2.94;66.75;95418.69;4951063;28;20110;-77
2022/02/15 00:51:19;;;;;;;99.68;52.72;;;;;;;3.01;69.07;95419.59;4959556;28;20046;-80
2022/02/15 00:53:44;;;;;;;126.15;66.22;;;;;;;3.09;69.39;95412.78;4953040;28;20058;-77
2022/02/15 00:56:10;;;;;;;249.93;130.90;;;;;;;3.07;66.22;95412.16;4951392;29;20049;-76
2022/02/15 00:58:35;;;;;;;226.98;125.47;;;;;;;2.96;66.47;95411.59;4952178;28;20069;-77
2022/02/15 01:01:01;;;;;;;235.68;121.07;;;;;;;2.96;66.61;95410.81;4980035;23;20047;-77
2022/02/15 01:03:26;;;;;;;242.52;123.15;;;;;;;2.91;66.60;95406.16;4961713;28;20038;-77
2022/02/15 01:05:51;;;;;;;254.85;122.80;;;;;;;2.87;66.51;95402.34;4971994;28;20023;-77
2022/02/15 01:08:17;;;;;;;246.70;121.40;;;;;;;2.83;66.37;95406.22;4970949;28;20042;-79
2022/02/15 01:10:42;;;;;;;343.15;161.05;;;;;;;2.87;66.29;95397.19;4971492;28;20038;-78
2022/02/15 01:13:08;;;;;;;264.58;132.60;;;;;;;2.84;66.74;95392.41;4954794;28;20031;-77
2022/02/15 01:15:34;;;;;;;269.48;140.27;;;;;;;2.86;66.97;95395.59;4970418;28;20034;-77
2022/02/15 01:17:59;;;;;;;264.65;134.40;;;;;;;2.78;67.38;95389.72;4954269;28;20069;-77
2022/02/15 01:20:24;;;;;;;255.80;128.90;;;;;;;2.77;67.30;95386.34;4969986;28;20043;-78
2022/02/15 01:22:50;;;;;;;213.98;113.70;;;;;;;2.72;67.11;95378.34;4939134;28;20039;-77
2022/02/15 01:25:15;;;;;;;213.05;114.28;;;;;;;2.77;66.79;95368.38;4954523;28;20038;-78
2022/02/15 01:27:41;;;;;;;232.80;119.03;;;;;;;2.72;66.79;95368.88;4968836;28;20045;-77
2022/02/15 01:30:07;;;;;;;198.77;109.00;;;;;;;2.68;66.74;95369.38;4969933;28;20406;-77
2022/02/15 01:32:32;;;;;;;180.80;97.15;;;;;;;2.69;66.83;95360.72;4954210;28;20039;-77
2022/02/15 01:34:58;;;;;;;210.52;103.65;;;;;;;2.70;66.83;95375.16;4971559;28;20557;-78
2022/02/15 01:37:23;;;;;;;201.52;97.97;;;;;;;2.67;66.00;95366.03;4968781;28;20022;-77
2022/02/15 01:39:49;;;;;;;192.73;89.13;;;;;;;2.63;66.83;95364.75;4988232;23;20046;-77
2022/02/15 01:42:18;;;;;;;194.98;90.78;;;;;;;2.62;66.39;95360.59;4962073;28;20027;-77
2022/02/15 01:44:43;;;;;;;191.98;85.85;;;;;;;2.54;66.34;95364.97;4966338;28;20054;-77
2022/02/15 01:47:09;;;;;;;198.70;85.85;;;;;;;2.51;66.95;95360.97;4966048;23;20443;-77
2022/02/15 01:49:34;;;;;;;215.75;86.03;;;;;;;2.48;66.66;95366.44;4951703;28;20032;-77
2022/02/15 01:52:00;;;;;;;217.48;90.18;;;;;;;2.40;67.04;95353.63;4943338;29;20035;-77
2022/02/15 01:54:25;;;;;;;221.70;87.55;;;;;;;2.44;66.68;95362.63;4946185;28;20038;-78
2022/02/15 01:56:50;;;;;;;194.55;79.88;;;;;;;2.39;66.55;95357.97;4935692;29;20094;-77
2022/02/15 01:59:16;;;;;;;178.52;77.00;;;;;;;2.36;66.20;95363.44;4944059;28;20032;-77
2022/02/15 02:01:41;;;;;;;164.63;68.60;;;;;;;2.34;67.44;95367.94;4926713;29;20237;-77
2022/02/15 02:05:47;;;;;;;175.65;73.65;;;;;;;2.37;66.68;95367.59;4926111;29;20503;-77
2022/02/15 02:06:52;;;;;;;173.40;68.30;;;;;;;2.28;66.84;95367.81;4973607;23;20118;-76
2022/02/15 02:09:17;;;;;;;149.65;64.10;;;;;;;2.25;67.27;95365.56;4952888;28;20046;-77
2022/02/15 02:11:43;;;;;;;73.85;39.65;;;;;;;2.27;67.96;95374.69;4942079;29;20035;-76
2022/02/15 02:14:08;;;;;;;76.40;39.70;;;;;;;2.37;67.48;95370.19;4940278;28;20089;-76
2022/02/15 02:16:34;;;;;;;76.88;39.95;;;;;;;2.30;67.16;95364.13;4941278;29;20028;-76
2022/02/15 02:18:59;;;;;;;68.75;37.42;;;;;;;2.33;68.35;95368.13;4940466;29;20058;-76
2022/02/15 02:21:36;;;;;;;69.82;38.55;;;;;;;2.31;67.03;95378.56;4942317;28;20040;-77
2022/02/15 02:24:01;;;;;;;67.13;38.83;;;;;;;2.24;66.82;95369.09;4940627;29;20496;-77
2022/02/15 02:26:27;;;;;;;63.97;39.97;;;;;;;2.27;66.56;95369.56;4932624;29;20039;-77
2022/02/15 02:28:52;;;;;;;72.50;41.47;;;;;;;2.28;66.31;95375.53;4940485;29;20114;-77
2022/02/15 02:31:18;;;;;;;78.60;42.95;;;;;;;2.26;67.17;95373.09;4941124;28;20123;-77
2022/02/15 02:33:43;;;;;;;86.45;43.17;;;;;;;2.27;67.52;95368.78;4939819;29;20039;-77
2022/02/15 02:36:09;;;;;;;82.18;45.00;;;;;;;2.29;67.50;95367.66;4940261;29;20040;-77
2022/02/15 02:38:34;;;;;;;104.90;56.03;;;;;;;2.30;67.72;95382.09;4941660;29;20368;-77
2022/02/15 02:41:00;;;;;;;120.00;66.53;;;;;;;2.29;67.87;95384.81;4948834;28;20035;-77
2022/02/15 02:43:28;;;;;;;113.90;60.42;;;;;;;2.23;67.87;95388.84;5002411;23;20031;-76
2022/02/15 02:45:53;;;;;;;120.38;57.55;;;;;;;2.23;67.86;95388.03;4940508;29;20031;-77
2022/02/15 02:48:19;;;;;;;112.68;58.95;;;;;;;2.28;68.19;95391.72;4942571;29;20039;-77
2022/02/15 02:50:44;;;;;;;144.10;58.72;;;;;;;2.33;67.57;95389.44;4937386;28;20024;-77
2022/02/15 02:53:11;;;;;;;177.18;77.47;;;;;;;2.41;67.63;95391.97;4942455;29;20476;-77
2022/02/15 02:55:37;;;;;;;159.27;76.90;;;;;;;2.42;67.67;95403.84;4926939;29;20105;-77
2022/02/15 02:58:02;;;;;;;158.30;77.13;;;;;;;2.42;67.77;95401.25;4924988;29;20479;-77
2022/02/15 03:00:28;;;;;;;160.38;72.70;;;;;;;2.44;67.05;95405.44;4911032;29;20135;-77
2022/02/15 03:02:53;;;;;;;170.82;75.47;;;;;;;2.37;66.69;95403.53;4940401;29;20051;-77
2022/02/15 03:05:18;;;;;;;180.20;77.32;;;;;;;2.39;67.47;95405.94;4938958;28;20031;-77
2022/02/15 03:07:44;;;;;;;173.75;77.50;;;;;;;2.34;67.06;95403.88;4939835;29;20748;-77
2022/02/15 03:10:09;;;;;;;132.90;67.95;;;;;;;2.31;67.50;95406.78;4941685;29;20472;-77
2022/02/15 03:12:35;;;;;;;126.05;63.95;;;;;;;2.41;67.65;95407.38;4939763;29;20046;-77
2022/02/15 03:15:00;;;;;;;116.78;60.00;;;;;;;2.41;68.21;95407.38;4941560;29;20633;-77
2022/02/15 03:17:26;;;;;;;134.57;68.97;;;;;;;2.44;67.50;95410.56;4925549;29;20139;-76
2022/02/15 03:19:52;;;;;;;137.35;69.55;;;;;;;2.52;66.73;95413.09;4940258;28;20515;-77
2022/02/15 03:22:19;;;;;;;136.80;65.00;;;;;;;2.59;67.31;95414.81;4939562;29;20040;-77
2022/02/15 03:24:45;;;;;;;161.77;77.32;;;;;;;2.53;67.41;95409.56;4924470;29;20031;-77
2022/02/15 03:27:10;;;;;;;141.10;73.82;;;;;;;2.49;67.44;95408.31;4940902;29;20028;-77
2022/02/15 03:29:36;;;;;;;175.93;88.07;;;;;;;2.50;67.35;95413.28;4907274;29;20082;-77
2022/02/15 03:32:01;;;;;;;158.50;75.97;;;;;;;2.48;66.70;95409.28;4941607;29;20075;-77
2022/02/15 03:34:27;;;;;;;143.88;75.00;;;;;;;2.50;67.38;95410.72;4923547;29;20118;-77
2022/02/15 03:36:52;;;;;;;144.40;75.82;;;;;;;2.48;66.84;95420.34;4939396;29;20024;-77
2022/02/15 03:39:17;;;;;;;121.70;65.32;;;;;;;2.48;68.53;95422.13;4940368;29;20039;-77
2022/02/15 03:44:27;;;;;;;126.88;65.85;;;;;;;2.62;68.36;95413.72;4927705;29;20046;-77
2022/02/15 03:46:52;;;;;;;111.25;66.68;;;;;;;2.54;66.72;95416.31;4943754;29;20031;-77
2022/02/15 03:49:18;;;;;;;119.50;66.95;;;;;;;2.57;67.50;95436.50;4943171;29;20483;-77
2022/02/15 03:51:44;;;;;;;121.00;62.70;;;;;;;2.48;67.13;95422.13;4942963;29;20039;-77
2022/02/15 03:54:09;;;;;;;110.68;61.70;;;;;;;2.47;66.54;95420.53;4946670;28;20047;-77
2022/02/15 03:56:35;;;;;;;118.97;64.40;;;;;;;2.48;66.26;95427.25;4943101;29;20414;-76
2022/02/15 03:59:00;;;;;;;110.45;65.20;;;;;;;2.49;66.92;95433.97;4926708;29;20119;-76
2022/02/15 04:01:26;;;;;;;126.45;74.90;;;;;;;2.54;66.77;95426.56;4942860;29;20146;-76
2022/02/15 04:03:51;;;;;;;141.63;79.25;;;;;;;2.57;66.52;95411.63;4941953;29;20043;-77
2022/02/15 04:06:20;;;;;;;157.80;88.68;;;;;;;2.61;66.87;95419.81;4926332;29;20558;-76
2022/02/15 04:08:46;;;;;;;153.93;87.88;;;;;;;2.69;66.89;95414.63;4943213;28;20032;-77
2022/02/15 04:11:12;;;;;;;217.38;117.18;;;;;;;2.72;66.32;95412.53;4943869;29;20491;-76
2022/02/15 04:13:38;;;;;;;202.73;117.93;;;;;;;2.82;66.34;95414.91;4942733;29;20050;-77
2022/02/15 04:16:04;;;;;;;146.05;79.28;;;;;;;2.89;67.20;95420.94;4926545;29;20031;-77
2022/02/15 04:18:29;;;;;;;125.75;70.53;;;;;;;2.93;68.61;95422.22;4942154;28;20028;-77
2022/02/15 04:20:54;;;;;;;171.27;98.50;;;;;;;3.02;68.19;95415.25;4942979;29;20582;-77
2022/02/15 04:23:20;;;;;;;166.52;95.13;;;;;;;3.01;68.31;95417.03;4943547;29;20032;-77
2022/02/15 04:25:45;;;;;;;104.25;58.63;;;;;;;3.13;68.73;95411.50;4926096;29;20046;-77
2022/02/15 04:28:11;;;;;;;103.28;59.80;;;;;;;3.16;69.33;95411.16;4942531;29;20032;-77
2022/02/15 04:30:36;;;;;;;153.77;88.30;;;;;;;3.29;67.72;95417.34;4944982;29;20035;-77
2022/02/15 04:33:02;;;;;;;115.88;63.83;;;;;;;3.34;67.84;95408.28;4933975;29;20047;-77
2022/02/15 04:35:28;;;;;;;112.03;67.00;;;;;;;3.38;67.67;95406.97;4958991;28;20380;-78
2022/02/15 04:37:53;;;;;;;105.68;58.65;;;;;;;3.43;68.36;95412.41;4927106;29;20040;-78
2022/02/15 04:40:19;;;;;;;82.97;51.13;;;;;;;3.48;68.64;95420.41;4959639;23;20507;-77
2022/02/15 04:42:44;;;;;;;128.43;72.72;;;;;;;3.46;66.90;95423.16;4962178;28;20476;-77
2022/02/15 04:45:10;;;;;;;107.60;62.75;;;;;;;3.55;67.56;95427.25;4948699;28;20035;-78
2022/02/15 04:47:35;;;;;;;83.53;48.92;;;;;;;3.60;68.28;95413.88;4943097;29;20043;-76
2022/02/15 04:50:00;;;;;;;76.95;47.53;;;;;;;3.59;68.39;95415.66;4926086;29;20031;-77
2022/02/15 04:52:26;;;;;;;82.25;47.67;;;;;;;3.54;69.03;95420.50;4910459;29;20042;-77
2022/02/15 04:54:51;;;;;;;108.28;60.17;;;;;;;3.61;67.78;95420.63;4926632;29;20054;-79
2022/02/15 04:57:17;;;;;;;91.97;57.22;;;;;;;3.73;67.72;95428.69;4945705;29;20028;-78
2022/02/15 04:59:42;;;;;;;130.45;75.18;;;;;;;3.74;67.12;95430.28;5013088;23;20061;-78
2022/02/15 05:02:10;;;;;;;143.32;86.03;;;;;;;3.77;65.92;95424.81;4965201;28;20054;-78
2022/02/15 05:04:50;;;;;;;126.78;77.50;;;;;;;3.71;65.63;95433.22;4968740;28;20039;-78
2022/02/15 05:07:20;;;;;;;147.07;88.82;;;;;;;3.63;65.96;95428.97;4972742;28;20033;-78
2022/02/15 05:09:46;;;;;;;171.07;104.85;;;;;;;3.72;66.24;95427.09;4972050;28;20046;-77
2022/02/15 05:12:11;;;;;;;112.03;64.65;;;;;;;3.62;67.39;95427.38;4972266;28;20038;-80
2022/02/15 05:14:37;;;;;;;218.90;123.15;;;;;;;3.70;66.71;95431.63;4970512;28;20136;-77
2022/02/15 05:17:02;;;;;;;229.65;132.57;;;;;;;3.60;66.65;95432.69;4970977;28;20038;-77
2022/02/15 05:19:28;;;;;;;189.90;118.18;;;;;;;3.62;66.96;95440.22;4959541;23;20037;-77
2022/02/15 05:21:53;;;;;;;210.73;122.22;;;;;;;3.62;66.61;95437.66;4961105;28;20060;-77
2022/02/15 05:24:19;;;;;;;151.10;86.80;;;;;;;3.67;66.53;95426.84;4956233;28;20463;-78
2022/02/15 05:26:44;;;;;;;123.40;76.63;;;;;;;3.74;66.89;95431.13;4942861;29;20032;-78
2022/02/15 05:29:10;;;;;;;171.40;98.45;;;;;;;3.66;66.68;95435.53;4926200;29;20039;-78
2022/02/15 05:31:35;;;;;;;149.55;85.47;;;;;;;3.72;66.09;95437.38;4943466;29;20032;-79
2022/02/15 05:34:01;;;;;;;137.20;77.90;;;;;;;3.78;67.03;95450.38;4944710;28;20511;-79
2022/02/15 05:36:26;;;;;;;90.43;55.50;;;;;;;3.79;66.64;95443.47;4927500;29;20157;-80
2022/02/15 05:38:52;;;;;;;112.05;65.28;;;;;;;3.81;66.87;95451.78;4944214;28;20035;-81
2022/02/15 05:41:17;;;;;;;111.07;65.53;;;;;;;3.86;66.74;95454.63;4944633;28;20035;-79
2022/02/15 05:43:43;;;;;;;117.30;68.97;;;;;;;3.87;65.80;95461.38;4944616;29;20027;-79
2022/02/15 05:48:37;;;;;;;176.00;104.03;;;;;;;3.79;66.23;95474.31;4969158;23;20042;-79
2022/02/15 05:51:03;;;;;;;149.13;84.97;;;;;;;3.86;66.28;95470.06;4945556;28;20118;-79
2022/02/15 05:53:29;;;;;;;129.35;74.25;;;;;;;3.85;66.72;95465.91;4944566;29;20042;-79
2022/02/15 05:55:58;;;;;;;140.50;86.53;;;;;;;3.86;66.95;95472.66;4943928;29;20558;-79
2022/02/15 05:58:24;;;;;;;165.93;98.30;;;;;;;3.88;66.44;95478.41;4920123;29;20058;-79
2022/02/15 06:00:49;;;;;;;119.95;76.28;;;;;;;3.91;67.17;95478.09;4943360;29;20035;-79
2022/02/15 06:05:59;;;;;;;120.80;66.07;;;;;;;3.96;67.12;95472.41;4945329;29;20035;-79
2022/02/15 06:08:24;;;;;;;120.10;63.85;;;;;;;3.96;66.74;95475.78;4948475;29;20043;-79
2022/02/15 06:10:51;;;;;;;125.15;67.68;;;;;;;4.04;66.98;95474.91;4937400;29;20074;-79
2022/02/15 06:13:16;;;;;;;128.43;70.88;;;;;;;4.09;66.31;95486.28;4946533;29;20032;-79
2022/02/15 06:15:42;;;;;;;141.10;75.72;;;;;;;4.07;66.86;95488.25;4944769;29;20050;-79
2022/02/15 06:18:07;;;;;;;139.10;76.68;;;;;;;4.11;66.40;95484.34;4943453;29;20463;-79
2022/02/15 06:20:33;;;;;;;133.23;71.68;;;;;;;4.20;65.95;95478.13;4945395;29;20051;-79
2022/02/15 06:22:58;;;;;;;138.05;75.95;;;;;;;4.27;65.99;95487.72;4961639;23;20070;-79
2022/02/15 06:25:24;;;;;;;121.60;69.55;;;;;;;4.37;65.68;95483.91;4949254;28;20039;-79
2022/02/15 06:27:49;;;;;;;138.00;75.30;;;;;;;4.26;66.55;95493.84;4944616;29;20024;-79
2022/02/15 06:30:15;;;;;;;155.30;79.40;;;;;;;4.34;66.02;95483.47;4946330;29;20032;-79
2022/02/15 06:32:40;;;;;;;162.32;81.70;;;;;;;4.29;66.68;95493.50;4945277;29;20039;-79
2022/02/15 06:35:06;;;;;;;174.43;89.88;;;;;;;4.31;65.97;95492.34;4945065;29;20508;-79
2022/02/15 06:37:34;;;;;;;194.00;100.45;;;;;;;4.37;66.03;95498.56;4946038;29;20113;-79
2022/02/15 06:39:59;;;;;;;195.43;101.18;;;;;;;4.51;66.01;95500.34;4947151;28;20055;-79
2022/02/15 06:42:25;;;;;;;183.90;95.35;;;;;;;4.44;65.57;95500.25;4946630;29;20492;-79
2022/02/15 06:44:51;;;;;;;179.10;95.85;;;;;;;4.42;65.65;95501.41;4944964;29;20039;-79
2022/02/15 06:47:16;;;;;;;177.77;96.47;;;;;;;4.42;66.09;95501.41;4945549;28;20024;-79
2022/02/15 06:49:41;;;;;;;151.77;84.22;;;;;;;4.45;65.45;95491.56;4947288;29;20038;-79
2022/02/15 06:52:07;;;;;;;144.57;79.45;;;;;;;4.45;65.89;95495.91;4945050;29;20042;-79
2022/02/15 06:54:32;;;;;;;151.50;77.68;;;;;;;4.36;66.17;95499.53;4951390;23;20051;-79
2022/02/15 06:56:58;;;;;;;143.77;76.20;;;;;;;4.40;66.01;95505.94;4963321;28;20031;-79
2022/02/15 06:59:23;;;;;;;116.50;63.20;;;;;;;4.49;65.10;95504.88;4939593;29;20103;-79
2022/02/15 07:01:50;;;;;;;106.15;55.92;;;;;;;4.56;64.97;95498.06;4942545;29;20036;-79
2022/02/15 07:04:15;;;;;;;107.07;54.38;;;;;;;4.57;65.08;95507.38;4951442;29;20043;-78
2022/02/15 07:06:41;;;;;;;111.30;58.05;;;;;;;4.67;65.18;95507.09;4945982;29;20039;-78
2022/02/15 07:09:06;;;;;;;108.68;60.10;;;;;;;4.77;65.11;95511.00;4927892;29;20069;-79
2022/02/15 07:11:32;;;;;;;118.60;62.22;;;;;;;4.74;64.51;95510.56;4943818;29;20046;-79
2022/02/15 07:13:58;;;;;;;119.18;60.20;;;;;;;4.86;65.04;95509.13;4944386;29;20035;-79
2022/02/15 07:16:23;;;;;;;108.97;59.25;;;;;;;4.82;64.88;95508.69;4991118;23;20093;-79
2022/02/15 07:18:48;;;;;;;109.47;60.35;;;;;;;4.87;65.71;95515.09;4966501;23;20050;-79
2022/02/15 07:21:14;;;;;;;122.03;66.15;;;;;;;5.06;65.41;95507.63;4948751;28;20049;-79
2022/02/15 07:23:40;;;;;;;113.68;64.22;;;;;;;5.29;64.04;95515.22;4946652;29;20368;-79
2022/02/15 07:26:05;;;;;;;116.43;61.47;;;;;;;5.60;62.34;95506.41;4950427;29;20039;-80
2022/02/15 07:28:31;;;;;;;129.45;66.70;;;;;;;5.66;63.11;95495.34;4932313;29;20039;-80
2022/02/15 07:30:56;;;;;;;130.63;68.13;;;;;;;5.78;62.35;95493.88;4932327;29;20053;-79
2022/02/15 07:33:22;;;;;;;123.38;66.30;;;;;;;5.86;62.34;95496.34;4949138;28;20039;-79
2022/02/15 07:35:48;;;;;;;142.77;73.90;;;;;;;5.95;61.90;95502.19;4932427;29;20043;-79
2022/02/15 07:38:13;;;;;;;147.90;78.55;;;;;;;6.08;61.61;95493.75;4942865;29;20058;-79
2022/02/15 07:40:39;;;;;;;147.23;74.80;;;;;;;6.31;60.99;95494.31;4967310;28;20096;-78
2022/02/15 07:43:04;;;;;;;148.75;79.07;;;;;;;6.49;60.10;95506.75;4991234;23;20043;-78
2022/02/15 07:45:30;;;;;;;145.90;79.50;;;;;;;6.41;60.11;95510.28;4950260;29;20472;-78
2022/02/15 07:47:55;;;;;;;129.25;69.15;;;;;;;6.40;59.86;95508.69;4936956;29;20485;-78
2022/02/15 07:50:22;;;;;;;128.88;70.55;;;;;;;6.53;59.64;95503.63;5011426;23;20171;-78
2022/02/15 07:52:50;;;;;;;138.98;74.00;;;;;;;6.67;59.63;95493.34;4965562;28;20455;-78
2022/02/15 07:55:16;;;;;;;142.65;73.47;;;;;;;6.84;59.51;95502.41;4951161;28;20043;-79
2022/02/15 07:57:42;;;;;;;126.45;69.80;;;;;;;7.02;58.45;95497.53;4929687;29;20114;-78
2022/02/15 08:00:07;;;;;;;136.50;71.47;;;;;;;7.29;57.72;95498.41;4946511;29;20106;-80
2022/02/15 08:02:33;;;;;;;133.45;72.95;;;;;;;7.54;58.04;95485.75;4930374;29;20503;-79
2022/02/15 08:04:59;;;;;;;141.38;75.35;;;;;;;7.49;57.18;95493.31;4950401;28;20062;-79
2022/02/15 08:07:25;;;;;;;132.27;71.30;;;;;;;7.61;57.48;95496.88;4931836;29;20094;-80
2022/02/15 08:09:50;;;;;;;124.45;68.10;;;;;;;7.75;57.59;95501.09;4945109;29;20039;-79
2022/02/15 08:12:18;;;;;;;117.45;65.82;;;;;;;7.91;56.03;95499.94;4931666;29;20063;-79
2022/02/15 08:14:45;;;;;;;134.48;67.85;;;;;;;8.13;55.23;95496.16;4946394;28;20031;-79
2022/02/15 08:17:13;;;;;;;93.60;56.88;;;;;;;8.28;54.33;95498.53;4928318;29;20028;-78
2022/02/15 08:19:38;;;;;;;113.55;60.38;;;;;;;8.42;53.94;95497.56;4945438;28;20031;-77
2022/02/15 08:22:04;;;;;;;107.88;62.70;;;;;;;8.51;52.86;95502.53;4945205;29;20039;-78
2022/02/15 08:24:29;;;;;;;111.95;59.95;;;;;;;8.56;53.14;95506.13;4944137;28;20066;-79
2022/02/15 08:26:56;;;;;;;111.78;65.20;;;;;;;8.61;52.88;95497.72;4946400;29;20128;-79
2022/02/15 08:29:22;;;;;;;111.60;65.95;;;;;;;8.77;52.88;95491.31;4928378;28;20039;-79
2022/02/15 08:31:47;;;;;;;118.45;66.97;;;;;;;8.91;51.97;95493.66;4953664;28;20047;-79
2022/02/15 08:34:12;;;;;;;106.85;66.32;;;;;;;8.97;52.32;95492.88;4959436;23;20641;-79
2022/02/15 08:36:38;;;;;;;107.72;62.72;;;;;;;9.05;51.01;95486.66;4957000;28;20448;-79
2022/02/15 08:39:04;;;;;;;110.57;63.25;;;;;;;9.14;52.02;95488.03;4950288;28;20028;-79
2022/02/15 08:41:29;;;;;;;107.47;66.53;;;;;;;9.18;51.24;95484.00;4948807;29;20460;-79
2022/02/15 08:43:55;;;;;;;113.97;65.18;;;;;;;9.31;51.18;95488.34;4947223;29;20416;-79
2022/02/15 08:46:21;;;;;;;107.55;64.03;;;;;;;9.42;50.33;95484.28;4913644;29;20082;-79
2022/02/15 08:48:46;;;;;;;80.85;49.65;;;;;;;9.43;50.31;95481.47;4945539;29;20417;-79
2022/02/15 08:51:14;;;;;;;78.15;50.53;;;;;;;9.06;50.42;95490.81;4946204;29;20078;-79
2022/02/15 08:53:39;;;;;;;93.60;48.45;;;;;;;8.89;50.94;95482.69;4927921;29;20047;-82
2022/02/15 08:56:10;;;;;;;80.57;48.28;;;;;;;8.59;51.14;95484.19;4946077;29;20392;-79
2022/02/15 08:58:35;;;;;;;81.85;48.67;;;;;;;8.38;51.72;95490.41;4969738;23;20018;-78
2022/02/15 09:01:06;;;;;;;83.07;45.67;;;;;;;8.52;51.59;95483.41;4968349;28;20035;-79
2022/02/15 09:03:32;;;;;;;78.97;48.08;;;;;;;8.54;51.04;95476.22;4972971;28;20039;-79
2022/02/15 09:06:00;;;;;;;80.25;48.75;;;;;;;8.60;51.58;95471.00;4950940;28;20030;-81
2022/02/15 09:08:25;;;;;;;72.70;45.97;;;;;;;8.67;51.38;95482.19;5011342;23;20047;-80
2022/02/15 09:10:50;;;;;;;70.45;39.45;;;;;;;8.74;50.14;95482.16;4966506;28;20045;-80
2022/02/15 09:13:16;;;;;;;68.18;38.55;;;;;;;8.84;50.86;95477.34;4971282;28;20023;-81
2022/02/15 09:15:41;;;;;;;64.25;38.88;;;;;;;8.90;50.20;95471.31;4969406;28;20403;-82
2022/02/15 09:18:07;;;;;;;65.63;40.20;;;;;;;8.98;51.64;95473.72;4947020;28;20038;-81
2022/02/15 09:20:32;;;;;;;67.50;40.22;;;;;;;9.10;51.11;95473.03;4947355;28;20043;-82
2022/02/15 09:22:58;;;;;;;66.60;42.33;;;;;;;9.24;49.85;95472.00;4980129;28;20106;-82
2022/02/15 09:25:24;;;;;;;63.42;35.97;;;;;;;9.11;49.58;95472.88;4954269;28;20054;-80
2022/02/15 09:27:50;;;;;;;66.18;39.50;;;;;;;9.08;50.34;95465.47;4981476;28;20495;-80
2022/02/15 09:30:15;;;;;;;63.38;38.55;;;;;;;9.15;49.25;95468.84;4982559;28;20069;-81
2022/02/15 09:32:41;;;;;;;65.82;40.25;;;;;;;9.25;49.06;95468.38;4972035;28;20061;-82
2022/02/15 09:35:07;;;;;;;64.38;38.67;;;;;;;9.33;49.43;95462.97;4985153;28;20043;-81
2022/02/15 09:37:32;;;;;;;76.05;40.60;;;;;;;9.42;49.32;95466.91;4968776;28;20039;-80
2022/02/15 09:40:00;;;;;;;67.82;40.05;;;;;;;9.44;48.89;95451.94;5011646;23;20097;-79
2022/02/15 09:42:28;;;;;;;67.32;41.08;;;;;;;9.49;48.60;95454.69;4992631;28;20049;-80
2022/02/15 09:44:54;;;;;;;64.57;41.83;;;;;;;9.53;49.32;95455.88;4981146;28;20037;-81
2022/02/15 09:47:24;;;;;;;74.05;42.78;;;;;;;9.65;48.81;95447.41;4958284;28;20035;-81
2022/02/15 09:49:50;;;;;;;70.25;43.15;;;;;;;9.64;47.62;95441.44;4961486;28;20122;-82
2022/02/15 09:52:19;;;;;;;73.82;42.08;;;;;;;9.62;48.73;95431.25;4968810;23;20243;-81
2022/02/15 09:54:46;;;;;;;71.75;39.75;;;;;;;9.76;48.66;95429.38;4999022;23;20152;-81
2022/02/15 09:57:12;;;;;;;74.55;41.28;;;;;;;9.81;48.01;95420.94;4971315;28;20031;-81
2022/02/15 09:59:37;;;;;;;71.53;39.88;;;;;;;9.34;48.89;95425.63;4939655;29;20059;-81
2022/02/15 10:04:45;;;;;;;69.35;40.67;;;;;;;9.30;48.51;95414.09;5443467;23;20121;-81
2022/02/15 10:07:12;;;;;;;71.10;40.70;;;;;;;9.09;48.70;95407.38;4970029;28;20043;-81
2022/02/15 10:09:37;;;;;;;69.88;40.10;;;;;;;8.95;48.96;95411.88;4964697;28;20122;-81
2022/02/15 10:12:05;;;;;;;60.35;38.65;;;;;;;8.98;48.94;95408.84;4943596;29;20054;-81
2022/02/15 10:14:38;;;;;;;62.78;36.85;;;;;;;9.02;49.45;95407.44;4949731;29;20054;-81
2022/02/15 10:17:04;;;;;;;72.47;35.80;;;;;;;9.18;49.38;95405.38;4958175;29;20031;-80
2022/02/15 10:19:30;;;;;;;63.60;37.10;;;;;;;9.29;49.06;95395.13;4943378;29;20487;-81
2022/02/15 10:21:56;;;;;;;60.78;35.25;;;;;;;9.40;48.21;95385.84;4958602;29;20043;-81
2022/02/15 10:27:03;;;;;;;53.90;32.85;;;;;;;9.34;48.06;95389.31;5040680;23;20064;-81
2022/02/15 10:29:29;;;;;;;59.57;34.80;;;;;;;9.44;48.10;95379.25;4954822;28;20031;-80
2022/02/15 10:31:56;;;;;;;68.78;36.70;;;;;;;9.49;47.83;95370.84;4940957;29;20318;-81
2022/02/15 10:34:22;;;;;;;59.97;36.33;;;;;;;9.53;47.80;95372.78;4953138;29;20031;-81
2022/02/15 10:37:06;;;;;;;62.90;37.38;;;;;;;9.51;48.36;95366.22;4951286;29;20046;-81
2022/02/15 10:39:42;;;;;;;65.28;38.63;;;;;;;9.62;48.13;95366.34;4951678;29;20198;-81
2022/02/15 10:42:10;;;;;;;67.15;38.08;;;;;;;9.74;47.57;95355.25;4934975;29;20047;-81
2022/02/15 10:45:01;;;;;;;71.57;39.20;;;;;;;9.67;46.96;95357.13;4941484;29;20107;-81
2022/02/15 10:47:34;;;;;;;64.63;38.70;;;;;;;9.76;47.96;95350.63;4959693;28;20147;-82
2022/02/15 10:50:03;;;;;;;;;;;;;;;9.85;47.94;95354.56;4953052;29;20038;-80
2022/02/15 10:52:28;;;;;;;67.70;37.60;;;;;;;9.82;48.27;95353.19;4949845;28;19925;-81
2022/02/15 10:54:54;;;;;;;68.63;38.65;;;;;;;9.80;48.16;95342.22;4955004;28;20043;-81
2022/02/15 10:57:19;;;;;;;63.90;39.50;;;;;;;9.60;48.11;95333.81;4950347;29;20039;-80
2022/02/15 10:59:49;;;;;;;71.00;39.50;;;;;;;9.56;48.64;95341.22;4958343;29;20497;-82
2022/02/15 11:02:26;;;;;;;60.10;36.63;;;;;;;9.35;48.43;95327.81;4953986;28;20027;-81
2022/02/15 11:04:55;;;;;;;70.82;39.53;;;;;;;9.32;48.64;95327.22;4952326;29;20478;-81
2022/02/15 11:07:28;;;;;;;67.18;38.70;;;;;;;9.43;48.19;95328.31;4961618;28;20149;-82
2022/02/15 11:10:14;;;;;;;71.55;37.22;;;;;;;9.55;48.26;95326.63;4939963;29;20126;-81
2022/02/15 11:12:55;;;;;;;71.57;37.38;;;;;;;9.66;48.42;95329.56;4948997;29;20043;-81
2022/02/15 11:15:31;;;;;;;68.68;36.28;;;;;;;9.62;48.23;95313.63;4943481;29;20130;-81
2022/02/15 11:17:58;;;;;;;71.05;37.30;;;;;;;9.50;48.16;95310.91;4934787;29;20043;-82
2022/02/15 11:20:27;;;;;;;60.88;36.83;;;;;;;9.59;48.35;95301.84;4960926;29;20036;-80
2022/02/15 11:22:54;;;;;;;63.47;36.47;;;;;;;9.62;48.96;95303.22;4954829;29;20039;-80
2022/02/15 11:25:34;;;;;;;60.45;35.33;;;;;;;9.41;48.91;95291.41;4959522;29;20047;-80
2022/02/15 11:28:11;;;;;;;73.45;36.60;;;;;;;9.42;48.69;95295.59;4966042;29;20161;-81